createdAt,value
2018-08-17T00:02:06.422Z,47.52
2018-08-17T00:04:34.466Z,47.20
2018-08-17T00:07:02.278Z,46.92
2018-08-17T00:09:30.315Z,48.09
2018-08-17T00:11:58.167Z,48.51
2018-08-17T00:14:25.822Z,48.52
2018-08-17T00:16:53.643Z,48.87
2018-08-17T00:19:21.346Z,48.27
2018-08-17T00:21:49.034Z,48.84
2018-08-17T00:24:16.723Z,48.39
2018-08-17T00:26:44.688Z,49.07
2018-08-17T00:29:12.415Z,48.70
2018-08-17T00:31:40.240Z,49.54
2018-08-17T00:34:08.039Z,48.52
2018-08-17T00:36:35.839Z,48.82
2018-08-17T00:39:05.916Z,48.56
2018-08-17T00:41:33.866Z,49.67
2018-08-17T00:44:01.655Z,49.43
2018-08-17T00:46:29.359Z,50.01
2018-08-17T00:48:57.147Z,49.16
2018-08-17T00:51:24.876Z,49.34
2018-08-17T00:53:52.585Z,49.06
2018-08-17T00:56:20.331Z,49.14
2018-08-17T00:58:48.117Z,49.16
2018-08-17T01:01:15.843Z,50.04
2018-08-17T01:03:43.574Z,49.84
2018-08-17T01:06:11.275Z,48.94
2018-08-17T01:08:39.082Z,49.30
2018-08-17T01:11:06.761Z,48.95
2018-08-17T01:13:34.442Z,49.22
2018-08-17T01:16:02.402Z,48.86
2018-08-17T01:18:30.066Z,49.50
2018-08-17T01:20:57.798Z,49.02
2018-08-17T01:23:25.492Z,49.91
2018-08-17T01:25:53.184Z,49.62
2018-08-17T01:28:21.118Z,49.05
2018-08-17T01:30:48.865Z,49.08
2018-08-17T01:33:16.758Z,49.71
2018-08-17T01:35:44.702Z,48.97
2018-08-17T01:38:12.373Z,48.13
2018-08-17T01:40:40.151Z,49.29
2018-08-17T01:43:07.968Z,49.29
2018-08-17T01:45:35.623Z,49.05
2018-08-17T01:48:03.850Z,49.73
2018-08-17T01:50:31.755Z,49.17
2018-08-17T01:52:59.427Z,49.47
2018-08-17T01:55:27.750Z,49.14
2018-08-17T01:57:55.603Z,49.28
2018-08-17T02:00:23.426Z,49.86
2018-08-17T02:02:51.129Z,49.58
2018-08-17T02:05:18.951Z,49.44
2018-08-17T02:07:46.638Z,49.33
2018-08-17T02:10:14.367Z,49.65
2018-08-17T02:12:42.064Z,49.82
2018-08-17T02:15:09.856Z,49.73
2018-08-17T02:17:37.619Z,49.25
2018-08-17T02:20:05.907Z,49.94
2018-08-17T02:22:33.660Z,49.90
2018-08-17T02:25:01.662Z,49.86
2018-08-17T02:27:29.508Z,49.03
2018-08-17T02:29:57.321Z,49.74
2018-08-17T02:32:25.276Z,48.71
2018-08-17T02:34:53.017Z,49.87
2018-08-17T02:37:20.840Z,49.37
2018-08-17T02:39:48.563Z,50.16
2018-08-17T02:42:16.282Z,49.41
2018-08-17T02:44:43.965Z,49.97
2018-08-17T02:47:11.686Z,50.27
2018-08-17T02:49:39.412Z,50.30
2018-08-17T02:52:07.259Z,50.67
2018-08-17T02:54:34.986Z,49.80
2018-08-17T02:57:02.809Z,50.01
2018-08-17T02:59:30.567Z,50.78
2018-08-17T03:01:58.404Z,50.59
2018-08-17T03:04:26.156Z,51.10
2018-08-17T03:06:54.015Z,50.93
2018-08-17T03:09:21.830Z,50.19
2018-08-17T03:11:49.576Z,50.48
2018-08-17T03:14:17.291Z,51.32
2018-08-17T03:16:45.132Z,50.31
2018-08-17T03:19:12.915Z,50.22
2018-08-17T03:21:40.596Z,50.62
2018-08-17T03:24:08.410Z,50.43
2018-08-17T03:26:36.203Z,51.15
2018-08-17T03:29:04.294Z,50.80
2018-08-17T03:31:32.702Z,51.35
2018-08-17T03:34:00.395Z,50.54
2018-08-17T03:36:28.091Z,51.02
2018-08-17T03:38:55.919Z,51.82
2018-08-17T03:41:23.614Z,51.67
2018-08-17T03:43:51.350Z,51.07
2018-08-17T03:46:19.039Z,51.75
2018-08-17T03:48:46.783Z,51.71
2018-08-17T03:51:14.687Z,52.40
2018-08-17T03:53:42.379Z,51.65
2018-08-17T03:56:10.107Z,52.40
2018-08-17T03:58:37.906Z,51.86
2018-08-17T04:01:05.742Z,51.48
2018-08-17T04:03:33.535Z,51.48
2018-08-17T04:06:01.233Z,52.20
2018-08-17T04:08:29.369Z,50.90
2018-08-17T04:10:57.131Z,52.07
2018-08-17T04:13:25.188Z,51.68
2018-08-17T04:15:53.133Z,51.52
2018-08-17T04:18:20.915Z,52.33
2018-08-17T04:20:48.659Z,52.39
2018-08-17T04:23:16.395Z,52.91
2018-08-17T04:25:44.178Z,51.94
2018-08-17T04:28:11.893Z,51.97
2018-08-17T04:30:39.791Z,51.73
2018-08-17T04:33:08.131Z,51.38
2018-08-17T04:35:39.667Z,51.87
2018-08-17T04:38:08.552Z,51.58
2018-08-17T04:40:36.691Z,52.09
2018-08-17T04:43:04.905Z,51.41
2018-08-17T04:45:34.015Z,51.58
2018-08-17T04:48:01.765Z,52.02
2018-08-17T04:50:29.445Z,52.07
2018-08-17T04:52:57.302Z,51.87
2018-08-17T04:55:24.961Z,51.15
2018-08-17T04:57:53.080Z,52.01
2018-08-17T05:00:21.243Z,52.03
2018-08-17T05:02:49.023Z,50.79
2018-08-17T05:05:16.788Z,51.58
2018-08-17T05:07:44.502Z,51.65
2018-08-17T05:10:12.346Z,51.90
2018-08-17T05:12:41.042Z,51.88
2018-08-17T05:15:08.838Z,51.48
2018-08-17T05:17:36.703Z,52.00
2018-08-17T05:20:05.669Z,51.77
2018-08-17T05:22:33.322Z,50.78
2018-08-17T05:25:01.204Z,50.83
2018-08-17T05:27:28.898Z,51.73
2018-08-17T05:29:56.634Z,51.56
2018-08-17T05:32:24.467Z,50.65
2018-08-17T05:34:52.203Z,50.66
2018-08-17T05:37:19.922Z,50.75
2018-08-17T05:39:47.622Z,52.04
2018-08-17T05:42:15.926Z,52.28
2018-08-17T05:44:43.600Z,52.40
2018-08-17T05:47:11.349Z,51.78
2018-08-17T05:49:39.027Z,52.22
2018-08-17T05:52:06.915Z,51.89
2018-08-17T05:54:34.604Z,52.45
2018-08-17T05:57:02.302Z,53.08
2018-08-17T05:59:30.049Z,52.23
2018-08-17T06:01:58.019Z,51.67
2018-08-17T06:04:26.607Z,53.80
2018-08-17T06:06:54.303Z,53.07
2018-08-17T06:09:22.173Z,53.51
2018-08-17T06:11:51.277Z,53.59
2018-08-17T06:14:20.104Z,52.14
2018-08-17T06:16:47.922Z,52.59
2018-08-17T06:19:15.711Z,52.55
2018-08-17T06:21:43.382Z,52.45
2018-08-17T06:24:11.111Z,51.45
2018-08-17T06:26:38.795Z,52.75
2018-08-17T06:29:06.543Z,52.45
2018-08-17T06:31:34.866Z,51.87
2018-08-17T06:34:02.614Z,51.92
2018-08-17T06:36:30.345Z,52.30
2018-08-17T06:38:58.062Z,51.32
2018-08-17T06:41:25.751Z,51.74
2018-08-17T06:43:53.479Z,51.71
2018-08-17T06:46:21.240Z,51.75
2018-08-17T06:48:48.978Z,52.47
2018-08-17T06:51:16.667Z,52.78
2018-08-17T06:53:44.383Z,51.97
2018-08-17T06:56:12.184Z,51.44
2018-08-17T06:58:39.863Z,51.42
2018-08-17T07:01:10.855Z,51.61
2018-08-17T07:03:38.948Z,52.09
2018-08-17T07:06:07.263Z,51.87
2018-08-17T07:08:35.021Z,52.46
2018-08-17T07:11:02.748Z,52.72
2018-08-17T07:13:30.489Z,52.45
2018-08-17T07:15:58.286Z,51.95
2018-08-17T07:18:25.995Z,51.22
2018-08-17T07:20:53.727Z,51.21
2018-08-17T07:23:21.435Z,50.71
2018-08-17T07:25:49.251Z,50.19
2018-08-17T07:28:16.994Z,51.06
2018-08-17T07:30:44.913Z,51.17
2018-08-17T07:33:12.606Z,51.11
2018-08-17T07:35:40.340Z,50.55
2018-08-17T07:38:08.120Z,50.08
2018-08-17T07:40:35.807Z,49.19
2018-08-17T07:43:03.566Z,49.45
2018-08-17T07:45:31.269Z,50.35
2018-08-17T07:47:59.086Z,49.79
2018-08-17T07:50:26.742Z,49.27
2018-08-17T07:52:54.731Z,48.44
2018-08-17T07:55:48.911Z,48.33
2018-08-17T07:58:17.731Z,48.76
2018-08-17T08:00:45.532Z,49.02
2018-08-17T08:03:16.922Z,48.21
2018-08-17T08:05:44.630Z,48.19
2018-08-17T08:08:12.542Z,48.97
2018-08-17T08:10:40.264Z,48.46
2018-08-17T08:13:07.939Z,48.30
2018-08-17T08:15:35.619Z,48.64
2018-08-17T08:18:03.306Z,48.73
2018-08-17T08:20:35.347Z,49.07
2018-08-17T08:23:20.090Z,48.72
2018-08-17T08:25:47.825Z,48.65
2018-08-17T08:28:15.551Z,47.59
2018-08-17T08:30:43.306Z,48.72
2018-08-17T08:33:11.199Z,48.32
2018-08-17T08:35:38.982Z,47.57
2018-08-17T08:38:06.995Z,47.38
2018-08-17T08:40:34.710Z,47.87
2018-08-17T08:43:02.642Z,47.73
2018-08-17T08:45:30.440Z,48.09
2018-08-17T08:47:58.106Z,47.95
2018-08-17T08:50:25.942Z,47.15
2018-08-17T08:52:53.699Z,47.80
2018-08-17T08:55:21.464Z,47.82
2018-08-17T08:57:49.235Z,46.75
2018-08-17T09:00:16.995Z,46.50
2018-08-17T09:02:44.747Z,46.08
2018-08-17T09:07:47.623Z,45.21
2018-08-17T09:10:15.492Z,44.45
2018-08-17T09:12:43.327Z,43.71
2018-08-17T09:15:11.699Z,45.16
2018-08-17T09:17:40.527Z,45.01
2018-08-17T09:20:10.922Z,44.78
2018-08-17T09:22:38.834Z,44.23
2018-08-17T09:25:06.794Z,44.81
2018-08-17T09:27:34.519Z,44.48
2018-08-17T09:30:05.284Z,45.11
2018-08-17T09:32:33.823Z,44.82
2018-08-17T09:35:01.624Z,44.39
2018-08-17T09:37:29.319Z,43.37
2018-08-17T09:39:57.007Z,42.70
2018-08-17T09:42:24.691Z,42.29
2018-08-17T09:44:52.467Z,42.62
2018-08-17T09:47:20.484Z,42.42
2018-08-17T09:49:48.279Z,43.01
2018-08-17T09:52:16.060Z,42.05
2018-08-17T09:54:43.818Z,42.35
2018-08-17T09:57:11.518Z,42.46
2018-08-17T10:01:21.128Z,42.28
2018-08-17T10:07:03.007Z,42.31
2018-08-17T10:12:10.399Z,41.39
2018-08-17T10:14:38.103Z,42.42
2018-08-17T10:17:05.912Z,42.28
2018-08-17T10:19:34.017Z,41.55
2018-08-17T10:22:02.628Z,40.64
2018-08-17T10:24:30.369Z,39.64
2018-08-17T10:26:58.558Z,40.18
2018-08-17T10:29:26.383Z,40.75
2018-08-17T10:32:26.861Z,39.65
2018-08-17T10:35:10.644Z,39.92
2018-08-17T10:40:03.483Z,39.40
2018-08-17T10:42:31.554Z,38.93
2018-08-17T10:44:59.299Z,39.19
2018-08-17T10:47:27.009Z,38.81
2018-08-17T10:49:55.590Z,39.90
2018-08-17T10:52:23.286Z,39.09
2018-08-17T10:54:51.094Z,38.84
2018-08-17T10:57:18.822Z,39.44
2018-08-17T10:59:46.515Z,39.69
2018-08-17T11:02:14.287Z,38.32
2018-08-17T11:04:42.025Z,38.73
2018-08-17T11:07:09.754Z,38.94
2018-08-17T11:09:37.474Z,39.12
2018-08-17T11:12:05.470Z,37.80
2018-08-17T11:14:33.171Z,38.01
2018-08-17T11:17:00.934Z,38.96
2018-08-17T11:19:32.207Z,38.90
2018-08-17T11:21:59.935Z,38.15
2018-08-17T11:24:27.680Z,38.89
2018-08-17T11:26:55.391Z,37.61
2018-08-17T11:29:23.087Z,38.30
2018-08-17T11:31:52.151Z,37.93
2018-08-17T11:34:19.840Z,38.46
2018-08-17T11:36:47.596Z,38.93
2018-08-17T11:39:15.324Z,38.06
2018-08-17T11:41:43.019Z,37.66
2018-08-17T11:44:14.780Z,38.12
2018-08-17T11:46:42.479Z,37.41
2018-08-17T11:49:10.212Z,37.60
2018-08-17T11:51:39.974Z,37.50
2018-08-17T11:54:09.869Z,37.11
2018-08-17T11:56:37.564Z,36.12
2018-08-17T11:59:05.290Z,36.24
2018-08-17T12:01:34.194Z,36.19
2018-08-17T12:04:02.179Z,35.84
2018-08-17T12:06:30.009Z,36.61
2018-08-17T12:08:57.740Z,36.98
2018-08-17T12:11:25.458Z,37.26
2018-08-17T12:13:59.959Z,37.86
2018-08-17T12:16:27.679Z,37.74
2018-08-17T12:18:55.371Z,38.35
2018-08-17T12:21:23.067Z,38.01
2018-08-17T12:23:50.762Z,37.99
2018-08-17T12:26:18.451Z,35.81
2018-08-17T12:28:46.231Z,36.85
2018-08-17T12:31:13.932Z,37.35
2018-08-17T12:33:41.607Z,37.23
2018-08-17T12:36:09.534Z,37.38
2018-08-17T12:38:37.239Z,37.08
2018-08-17T12:41:05.172Z,37.06
2018-08-17T12:43:36.967Z,37.20
2018-08-17T12:46:04.683Z,37.09
2018-08-17T12:48:32.460Z,37.75
2018-08-17T12:51:06.585Z,38.10
2018-08-17T12:53:34.317Z,38.02
2018-08-17T12:56:02.094Z,37.68
2018-08-17T12:58:29.788Z,37.75
2018-08-17T13:00:57.635Z,38.42
2018-08-17T13:03:25.319Z,38.13
2018-08-17T13:05:53.006Z,37.90
2018-08-17T13:08:20.735Z,39.08
2018-08-17T13:10:48.523Z,38.89
2018-08-17T13:13:16.186Z,39.42
2018-08-17T13:16:06.436Z,38.40
2018-08-17T13:18:36.536Z,38.32
2018-08-17T13:21:04.356Z,38.35
2018-08-17T13:23:32.078Z,38.38
2018-08-17T13:25:59.894Z,39.48
2018-08-17T13:28:27.641Z,38.37
2018-08-17T13:30:55.395Z,38.72
2018-08-17T13:33:23.074Z,38.58
2018-08-17T13:35:50.784Z,39.52
2018-08-17T13:38:18.571Z,39.06
2018-08-17T13:40:46.265Z,39.75
2018-08-17T13:43:14.218Z,40.12
2018-08-17T13:45:41.934Z,40.09
2018-08-17T13:48:09.628Z,40.62
2018-08-17T13:50:37.387Z,39.81
2018-08-17T13:53:05.395Z,40.19
2018-08-17T13:55:33.183Z,41.24
2018-08-17T13:58:01.214Z,41.33
2018-08-17T14:00:28.907Z,40.85
2018-08-17T14:02:56.604Z,41.44
2018-08-17T14:05:24.412Z,41.38
2018-08-17T14:07:52.183Z,41.30
2018-08-17T14:10:19.868Z,41.70
2018-08-17T14:12:47.563Z,41.72
2018-08-17T14:15:15.261Z,40.87
2018-08-17T14:17:42.940Z,41.26
2018-08-17T14:20:15.093Z,40.88
2018-08-17T14:22:42.804Z,41.85
2018-08-17T14:25:10.910Z,41.21
2018-08-17T14:27:38.855Z,41.66
2018-08-17T14:30:13.722Z,42.28
2018-08-17T14:32:41.750Z,41.83
2018-08-17T14:35:09.716Z,41.72
2018-08-17T14:37:37.449Z,41.33
2018-08-17T14:40:05.876Z,41.59
2018-08-17T14:42:33.569Z,41.71
2018-08-17T14:45:01.275Z,42.07
2018-08-17T14:47:28.999Z,42.39
2018-08-17T14:49:56.706Z,41.37
2018-08-17T14:52:24.460Z,41.90
2018-08-17T14:54:52.163Z,41.90
2018-08-17T14:57:19.886Z,41.74
2018-08-17T14:59:47.579Z,42.93
2018-08-17T15:02:15.354Z,42.13
2018-08-17T15:04:43.070Z,41.52
2018-08-17T15:07:10.819Z,42.10
2018-08-17T15:09:38.568Z,41.61
2018-08-17T15:12:06.341Z,42.01
2018-08-17T15:14:34.065Z,42.18
2018-08-17T15:17:01.799Z,42.24
2018-08-17T15:19:29.492Z,43.06
2018-08-17T15:21:57.476Z,42.62
2018-08-17T15:24:25.170Z,41.86
2018-08-17T15:26:52.924Z,42.64
2018-08-17T15:29:20.626Z,41.73
2018-08-17T15:31:48.800Z,42.94
2018-08-17T15:34:16.502Z,42.84
2018-08-17T15:36:44.219Z,43.50
2018-08-17T15:39:12.119Z,43.02
2018-08-17T15:41:44.163Z,42.72
2018-08-17T15:44:22.516Z,42.47
2018-08-17T15:46:50.246Z,43.04
2018-08-17T15:49:22.562Z,43.33
2018-08-17T15:51:50.318Z,43.41
2018-08-17T15:54:18.007Z,42.40
2018-08-17T15:56:45.698Z,42.84
2018-08-17T15:59:13.466Z,41.73
2018-08-17T16:01:41.249Z,41.10
2018-08-17T16:04:09.338Z,41.86
2018-08-17T16:06:37.166Z,42.21
2018-08-17T16:09:08.472Z,41.79
2018-08-17T16:11:36.215Z,41.89
2018-08-17T16:14:04.251Z,42.45
2018-08-17T16:16:31.943Z,42.64
2018-08-17T16:18:59.696Z,42.01
2018-08-17T16:21:27.414Z,41.41
2018-08-17T16:23:55.111Z,41.51
2018-08-17T16:26:22.815Z,42.14
2018-08-17T16:28:50.530Z,42.14
2018-08-17T16:31:18.271Z,41.24
2018-08-17T16:33:46.005Z,40.80
2018-08-17T16:36:13.896Z,41.43
2018-08-17T16:38:41.652Z,43.12
2018-08-17T16:41:09.339Z,44.49
2018-08-17T16:43:43.963Z,45.00
2018-08-17T16:46:12.243Z,45.43
2018-08-17T16:48:40.978Z,46.13
2018-08-17T16:51:08.915Z,45.88
2018-08-17T16:53:36.798Z,45.77
2018-08-17T16:56:04.574Z,46.67
2018-08-17T16:58:32.392Z,47.12
2018-08-17T17:01:00.198Z,46.26
2018-08-17T17:03:27.935Z,45.79
2018-08-17T17:06:00.323Z,45.87
2018-08-17T17:08:28.495Z,45.26
2018-08-17T17:10:56.248Z,44.97
2018-08-17T17:13:24.223Z,45.46
2018-08-17T17:15:51.947Z,45.51
2018-08-17T17:18:19.787Z,45.37
2018-08-17T17:20:47.561Z,45.92
2018-08-17T17:23:15.295Z,46.34
2018-08-17T17:25:43.006Z,46.31
2018-08-17T17:28:11.020Z,45.89
2018-08-17T17:30:44.770Z,46.01
2018-08-17T17:33:12.588Z,47.30
2018-08-17T17:35:41.371Z,47.77
2018-08-17T17:38:09.662Z,48.05
2018-08-17T17:40:37.719Z,48.21
2018-08-17T17:43:05.919Z,48.28
2018-08-17T17:45:33.819Z,48.40
2018-08-17T17:48:02.375Z,48.51
2018-08-17T17:50:30.406Z,48.57
2018-08-17T17:52:59.231Z,51.53
2018-08-17T17:55:50.354Z,53.34
2018-08-17T17:58:19.871Z,56.09
2018-08-17T18:00:59.461Z,52.75
2018-08-17T18:03:28.477Z,52.12
2018-08-17T18:06:02.811Z,53.07
2018-08-17T18:08:30.759Z,53.57
2018-08-17T18:10:58.532Z,55.22
2018-08-17T18:13:26.315Z,55.23
2018-08-17T18:15:54.093Z,56.60
2018-08-17T18:18:21.971Z,58.72
2018-08-17T18:20:49.787Z,58.52
2018-08-17T18:23:17.561Z,58.00
2018-08-17T18:25:45.257Z,58.88
2018-08-17T18:28:13.031Z,59.25
2018-08-17T18:30:40.909Z,58.24
2018-08-17T18:33:08.909Z,59.20
2018-08-17T18:35:36.630Z,59.76
2018-08-17T18:38:04.793Z,58.63
2018-08-17T18:40:32.540Z,58.84
2018-08-17T18:43:00.316Z,59.02
2018-08-17T18:45:28.092Z,58.36
2018-08-17T18:47:55.811Z,59.32
2018-08-17T18:50:23.546Z,58.99
2018-08-17T18:52:51.382Z,58.75
2018-08-17T18:55:19.018Z,59.88
2018-08-17T18:57:46.742Z,59.26
2018-08-17T19:00:14.641Z,59.68
2018-08-17T19:02:42.423Z,59.91
2018-08-17T19:05:10.766Z,58.60
2018-08-17T19:07:38.818Z,59.00
2018-08-17T19:10:07.757Z,59.26
2018-08-17T19:12:36.000Z,59.86
2018-08-17T19:15:09.495Z,59.66
2018-08-17T19:17:37.339Z,59.54
2018-08-17T19:20:08.602Z,59.88
2018-08-17T19:22:42.232Z,60.03
2018-08-17T19:25:11.506Z,59.00
2018-08-17T19:27:39.967Z,59.48
2018-08-17T19:30:21.211Z,59.76
2018-08-17T19:32:49.272Z,60.80
2018-08-17T19:35:17.420Z,60.62
2018-08-17T19:37:45.167Z,59.88
2018-08-17T19:40:12.906Z,59.08
2018-08-17T19:42:40.667Z,59.81
2018-08-17T19:45:08.451Z,59.47
2018-08-17T19:47:36.167Z,59.04
2018-08-17T19:50:04.028Z,59.34
2018-08-17T19:52:31.754Z,59.76
2018-08-17T19:54:59.511Z,59.52
2018-08-17T19:57:27.233Z,58.83
2018-08-17T19:59:54.967Z,58.68
2018-08-17T20:02:22.663Z,59.99
2018-08-17T20:04:50.507Z,60.01
2018-08-17T20:07:18.224Z,59.55
2018-08-17T20:09:46.088Z,59.10
2018-08-17T20:12:13.847Z,59.53
2018-08-17T20:14:41.610Z,60.41
2018-08-17T20:17:09.426Z,61.25
2018-08-17T20:19:43.244Z,60.60
2018-08-17T20:22:17.835Z,60.10
2018-08-17T20:24:45.879Z,60.05
2018-08-17T20:27:13.730Z,59.35
2018-08-17T20:29:41.509Z,58.94
2018-08-17T20:32:09.303Z,58.91
2018-08-17T20:34:44.146Z,59.68
2018-08-17T20:37:13.034Z,59.60
2018-08-17T20:39:42.089Z,59.86
2018-08-17T20:42:10.328Z,59.25
2018-08-17T20:44:38.123Z,60.19
2018-08-17T20:47:05.882Z,60.90
2018-08-17T20:49:33.628Z,61.07
2018-08-17T20:52:02.655Z,60.52
2018-08-17T20:54:31.164Z,60.38
2018-08-17T20:56:59.471Z,61.00
2018-08-17T20:59:27.231Z,60.06
2018-08-17T21:01:55.017Z,61.54
2018-08-17T21:04:22.744Z,61.26
2018-08-17T21:06:50.471Z,61.51
2018-08-17T21:09:18.422Z,61.21
2018-08-17T21:11:46.315Z,60.68
2018-08-17T21:14:14.037Z,61.78
2018-08-17T21:16:41.746Z,61.70
2018-08-17T21:19:09.959Z,60.38
2018-08-17T21:21:38.032Z,59.93
2018-08-17T21:24:05.787Z,60.46
2018-08-17T21:26:33.474Z,59.32
2018-08-17T21:29:03.212Z,58.78
2018-08-17T21:31:30.923Z,59.02
2018-08-17T21:33:58.651Z,60.27
2018-08-17T21:36:26.618Z,61.71
2018-08-17T21:39:13.921Z,60.95
2018-08-17T21:41:43.607Z,60.68
2018-08-17T21:44:12.927Z,61.05
2018-08-17T21:46:51.195Z,61.66
2018-08-17T21:49:19.428Z,62.95
2018-08-17T21:51:47.119Z,62.58
2018-08-17T21:54:14.889Z,62.41
2018-08-17T21:56:42.847Z,63.79
2018-08-17T21:59:10.503Z,62.57
2018-08-17T22:01:38.568Z,62.31
2018-08-17T22:04:06.332Z,62.89
2018-08-17T22:06:34.047Z,62.29
2018-08-17T22:09:01.787Z,63.00
2018-08-17T22:11:33.622Z,62.60
2018-08-17T22:14:01.626Z,62.74
2018-08-17T22:16:29.334Z,62.88
2018-08-17T22:18:57.067Z,63.37
2018-08-17T22:21:25.279Z,62.59
2018-08-17T22:23:53.197Z,62.76
2018-08-17T22:26:21.455Z,62.70
2018-08-17T22:28:49.178Z,62.67
2018-08-17T22:31:42.600Z,62.73
2018-08-17T22:34:10.310Z,62.24
2018-08-17T22:36:38.027Z,62.50
2018-08-17T22:39:06.976Z,61.59
2018-08-17T22:41:34.646Z,61.73
2018-08-17T22:44:07.867Z,62.11
2018-08-17T22:46:35.538Z,62.39
2018-08-17T22:49:03.358Z,62.13
2018-08-17T22:51:31.127Z,62.32
2018-08-17T22:53:58.859Z,61.89
2018-08-17T22:56:27.571Z,61.48
2018-08-17T22:58:55.762Z,61.16
2018-08-17T23:01:23.466Z,62.04
2018-08-17T23:03:53.524Z,61.17
2018-08-17T23:06:22.312Z,61.13
2018-08-17T23:08:49.963Z,62.34
2018-08-17T23:11:31.624Z,61.54
2018-08-17T23:14:04.968Z,62.06
2018-08-17T23:16:32.710Z,62.16
2018-08-17T23:19:00.643Z,62.38
2018-08-17T23:21:28.337Z,62.36
2018-08-17T23:23:56.075Z,62.45
2018-08-17T23:26:23.795Z,62.63
2018-08-17T23:28:51.502Z,63.25
2018-08-17T23:31:19.492Z,63.29
2018-08-17T23:33:50.147Z,63.13
2018-08-17T23:36:17.890Z,62.32
2018-08-17T23:38:45.687Z,62.99
2018-08-17T23:41:13.405Z,63.11
2018-08-17T23:43:41.147Z,62.53
2018-08-17T23:46:08.846Z,62.16
2018-08-17T23:48:36.551Z,62.58
2018-08-17T23:51:04.318Z,62.70
2018-08-17T23:53:32.453Z,62.97
2018-08-17T23:56:00.248Z,62.64
2018-08-17T23:58:27.964Z,63.06
